sensor_id;sensor_type;location;lat;lon;timestamp;P1;durP1;ratioP1;P2;durP2;ratioP2
76417;SDS011;65250;47.602;19.002;2023-08-06T00:00:55;2.53;;;2.28;;
76417;SDS011;65250;47.602;19.002;2023-08-06T00:03:22;2.47;;;2.10;;
76417;SDS011;65250;47.602;19.002;2023-08-06T00:05:49;2.60;;;2.17;;
76417;SDS011;65250;47.602;19.002;2023-08-06T00:08:16;3.40;;;2.90;;
76417;SDS011;65250;47.602;19.002;2023-08-06T00:10:43;2.92;;;2.13;;
76417;SDS011;65250;47.602;19.002;2023-08-06T00:13:09;2.35;;;1.92;;
76417;SDS011;65250;47.602;19.002;2023-08-06T00:15:36;2.08;;;1.88;;
76417;SDS011;65250;47.602;19.002;2023-08-06T00:18:03;3.33;;;1.90;;
76417;SDS011;65250;47.602;19.002;2023-08-06T00:20:30;2.27;;;2.07;;
76417;SDS011;65250;47.602;19.002;2023-08-06T00:22:57;3.22;;;2.55;;
76417;SDS011;65250;47.602;19.002;2023-08-06T00:25:23;3.78;;;2.60;;
76417;SDS011;65250;47.602;19.002;2023-08-06T00:27:50;2.95;;;2.50;;
76417;SDS011;65250;47.602;19.002;2023-08-06T00:30:17;3.10;;;2.50;;
76417;SDS011;65250;47.602;19.002;2023-08-06T00:32:44;2.77;;;2.20;;
76417;SDS011;65250;47.602;19.002;2023-08-06T00:35:11;2.85;;;2.20;;
76417;SDS011;65250;47.602;19.002;2023-08-06T00:37:39;4.50;;;2.53;;
76417;SDS011;65250;47.602;19.002;2023-08-06T00:40:06;2.55;;;2.13;;
76417;SDS011;65250;47.602;19.002;2023-08-06T00:42:34;5.40;;;2.78;;
76417;SDS011;65250;47.602;19.002;2023-08-06T00:45:01;3.60;;;2.47;;
76417;SDS011;65250;47.602;19.002;2023-08-06T00:47:28;3.22;;;2.35;;
76417;SDS011;65250;47.602;19.002;2023-08-06T00:49:55;3.35;;;2.42;;
76417;SDS011;65250;47.602;19.002;2023-08-06T00:52:21;2.60;;;2.40;;
76417;SDS011;65250;47.602;19.002;2023-08-06T00:54:48;3.78;;;2.30;;
76417;SDS011;65250;47.602;19.002;2023-08-06T00:57:15;5.47;;;2.60;;
76417;SDS011;65250;47.602;19.002;2023-08-06T00:59:42;3.28;;;2.25;;
76417;SDS011;65250;47.602;19.002;2023-08-06T01:02:09;3.20;;;2.10;;
76417;SDS011;65250;47.602;19.002;2023-08-06T01:04:36;2.60;;;2.15;;
76417;SDS011;65250;47.602;19.002;2023-08-06T01:14:54;2.80;;;2.10;;
76417;SDS011;65250;47.602;19.002;2023-08-06T01:17:25;3.53;;;2.47;;
76417;SDS011;65250;47.602;19.002;2023-08-06T01:19:53;3.47;;;2.47;;
76417;SDS011;65250;47.602;19.002;2023-08-06T01:22:20;3.83;;;2.47;;
76417;SDS011;65250;47.602;19.002;2023-08-06T01:24:48;3.60;;;2.42;;
76417;SDS011;65250;47.602;19.002;2023-08-06T01:27:28;3.40;;;2.50;;
76417;SDS011;65250;47.602;19.002;2023-08-06T01:30:03;3.08;;;1.92;;
76417;SDS011;65250;47.602;19.002;2023-08-06T01:32:53;4.70;;;2.75;;
76417;SDS011;65250;47.602;19.002;2023-08-06T01:35:25;2.40;;;2.13;;
76417;SDS011;65250;47.602;19.002;2023-08-06T01:37:53;2.75;;;2.50;;
76417;SDS011;65250;47.602;19.002;2023-08-06T01:40:22;3.90;;;2.70;;
76417;SDS011;65250;47.602;19.002;2023-08-06T01:42:49;2.53;;;1.92;;
76417;SDS011;65250;47.602;19.002;2023-08-06T01:45:16;3.42;;;2.55;;
76417;SDS011;65250;47.602;19.002;2023-08-06T01:47:42;4.57;;;2.73;;
76417;SDS011;65250;47.602;19.002;2023-08-06T01:50:09;2.15;;;1.77;;
76417;SDS011;65250;47.602;19.002;2023-08-06T01:52:36;2.10;;;1.90;;
76417;SDS011;65250;47.602;19.002;2023-08-06T01:55:03;2.60;;;1.88;;
76417;SDS011;65250;47.602;19.002;2023-08-06T01:57:30;3.28;;;2.15;;
76417;SDS011;65250;47.602;19.002;2023-08-06T01:59:56;2.50;;;2.10;;
76417;SDS011;65250;47.602;19.002;2023-08-06T02:02:23;2.65;;;2.13;;
76417;SDS011;65250;47.602;19.002;2023-08-06T02:04:50;2.67;;;1.90;;
76417;SDS011;65250;47.602;19.002;2023-08-06T02:07:17;2.10;;;1.77;;
76417;SDS011;65250;47.602;19.002;2023-08-06T02:09:43;2.60;;;2.00;;
76417;SDS011;65250;47.602;19.002;2023-08-06T02:12:10;1.93;;;1.73;;
76417;SDS011;65250;47.602;19.002;2023-08-06T02:14:37;2.00;;;1.58;;
76417;SDS011;65250;47.602;19.002;2023-08-06T02:17:04;2.40;;;1.98;;
76417;SDS011;65250;47.602;19.002;2023-08-06T02:19:30;1.55;;;1.42;;
76417;SDS011;65250;47.602;19.002;2023-08-06T02:21:57;3.10;;;1.58;;
76417;SDS011;65250;47.602;19.002;2023-08-06T02:24:24;2.97;;;1.87;;
76417;SDS011;65250;47.602;19.002;2023-08-06T02:26:51;4.03;;;1.60;;
76417;SDS011;65250;47.602;19.002;2023-08-06T02:29:21;2.30;;;1.48;;
76417;SDS011;65250;47.602;19.002;2023-08-06T02:31:48;2.10;;;1.90;;
76417;SDS011;65250;47.602;19.002;2023-08-06T02:34:15;1.77;;;1.58;;
76417;SDS011;65250;47.602;19.002;2023-08-06T02:36:42;1.70;;;1.60;;
76417;SDS011;65250;47.602;19.002;2023-08-06T02:39:08;2.10;;;1.60;;
76417;SDS011;65250;47.602;19.002;2023-08-06T02:41:35;2.17;;;1.70;;
76417;SDS011;65250;47.602;19.002;2023-08-06T02:44:02;1.92;;;1.55;;
76417;SDS011;65250;47.602;19.002;2023-08-06T02:46:29;2.03;;;1.63;;
76417;SDS011;65250;47.602;19.002;2023-08-06T02:48:56;2.50;;;1.83;;
76417;SDS011;65250;47.602;19.002;2023-08-06T02:51:23;2.03;;;1.30;;
76417;SDS011;65250;47.602;19.002;2023-08-06T02:53:49;1.73;;;1.33;;
76417;SDS011;65250;47.602;19.002;2023-08-06T02:56:16;2.15;;;1.52;;
76417;SDS011;65250;47.602;19.002;2023-08-06T02:58:43;1.90;;;1.30;;
76417;SDS011;65250;47.602;19.002;2023-08-06T03:01:10;2.10;;;1.90;;
76417;SDS011;65250;47.602;19.002;2023-08-06T03:03:36;1.45;;;1.33;;
76417;SDS011;65250;47.602;19.002;2023-08-06T03:06:03;1.70;;;1.48;;
76417;SDS011;65250;47.602;19.002;2023-08-06T03:08:30;1.40;;;1.30;;
76417;SDS011;65250;47.602;19.002;2023-08-06T03:10:57;2.83;;;1.60;;
76417;SDS011;65250;47.602;19.002;2023-08-06T03:13:24;1.90;;;1.63;;
76417;SDS011;65250;47.602;19.002;2023-08-06T03:15:58;2.35;;;1.55;;
76417;SDS011;65250;47.602;19.002;2023-08-06T03:18:25;2.03;;;1.50;;
76417;SDS011;65250;47.602;19.002;2023-08-06T03:20:52;1.75;;;1.13;;
76417;SDS011;65250;47.602;19.002;2023-08-06T03:23:19;1.48;;;1.38;;
76417;SDS011;65250;47.602;19.002;2023-08-06T03:25:46;2.27;;;1.17;;
76417;SDS011;65250;47.602;19.002;2023-08-06T03:28:13;1.75;;;1.30;;
76417;SDS011;65250;47.602;19.002;2023-08-06T03:30:40;1.75;;;1.25;;
76417;SDS011;65250;47.602;19.002;2023-08-06T03:33:07;1.75;;;1.50;;
76417;SDS011;65250;47.602;19.002;2023-08-06T03:35:33;1.83;;;1.30;;
76417;SDS011;65250;47.602;19.002;2023-08-06T03:38:00;1.50;;;1.33;;
76417;SDS011;65250;47.602;19.002;2023-08-06T03:40:27;1.20;;;1.10;;
76417;SDS011;65250;47.602;19.002;2023-08-06T03:42:54;1.42;;;1.05;;
76417;SDS011;65250;47.602;19.002;2023-08-06T03:45:21;1.83;;;1.23;;
76417;SDS011;65250;47.602;19.002;2023-08-06T03:47:47;1.42;;;1.20;;
76417;SDS011;65250;47.602;19.002;2023-08-06T03:50:14;1.33;;;1.10;;
76417;SDS011;65250;47.602;19.002;2023-08-06T03:52:41;2.10;;;1.40;;
76417;SDS011;65250;47.602;19.002;2023-08-06T03:55:08;1.65;;;1.17;;
76417;SDS011;65250;47.602;19.002;2023-08-06T03:57:34;2.50;;;1.48;;
76417;SDS011;65250;47.602;19.002;2023-08-06T04:00:02;1.98;;;1.40;;
76417;SDS011;65250;47.602;19.002;2023-08-06T04:02:30;1.57;;;1.30;;
76417;SDS011;65250;47.602;19.002;2023-08-06T04:04:56;1.67;;;1.20;;
76417;SDS011;65250;47.602;19.002;2023-08-06T04:07:25;2.08;;;1.48;;
76417;SDS011;65250;47.602;19.002;2023-08-06T04:09:57;1.98;;;1.67;;
76417;SDS011;65250;47.602;19.002;2023-08-06T04:12:25;2.25;;;1.75;;
76417;SDS011;65250;47.602;19.002;2023-08-06T04:14:52;2.03;;;1.30;;
76417;SDS011;65250;47.602;19.002;2023-08-06T04:17:20;2.42;;;1.60;;
76417;SDS011;65250;47.602;19.002;2023-08-06T04:19:51;1.92;;;1.55;;
76417;SDS011;65250;47.602;19.002;2023-08-06T04:22:18;1.95;;;1.65;;
76417;SDS011;65250;47.602;19.002;2023-08-06T04:24:46;1.95;;;1.27;;
76417;SDS011;65250;47.602;19.002;2023-08-06T04:27:13;1.63;;;1.40;;
76417;SDS011;65250;47.602;19.002;2023-08-06T04:29:40;1.30;;;1.15;;
76417;SDS011;65250;47.602;19.002;2023-08-06T04:32:08;1.25;;;1.13;;
76417;SDS011;65250;47.602;19.002;2023-08-06T04:34:35;0.75;;;0.68;;
76417;SDS011;65250;47.602;19.002;2023-08-06T04:37:03;0.93;;;0.88;;
76417;SDS011;65250;47.602;19.002;2023-08-06T04:39:30;0.67;;;0.60;;
76417;SDS011;65250;47.602;19.002;2023-08-06T04:41:57;1.00;;;0.68;;
76417;SDS011;65250;47.602;19.002;2023-08-06T04:44:24;0.52;;;0.50;;
76417;SDS011;65250;47.602;19.002;2023-08-06T04:46:50;0.40;;;0.40;;
76417;SDS011;65250;47.602;19.002;2023-08-06T04:49:18;0.57;;;0.30;;
76417;SDS011;65250;47.602;19.002;2023-08-06T04:51:46;0.87;;;0.43;;
76417;SDS011;65250;47.602;19.002;2023-08-06T04:54:13;0.20;;;0.20;;
76417;SDS011;65250;47.602;19.002;2023-08-06T04:56:40;0.50;;;0.30;;
76417;SDS011;65250;47.602;19.002;2023-08-06T04:59:07;0.35;;;0.35;;
76417;SDS011;65250;47.602;19.002;2023-08-06T05:01:33;0.20;;;0.20;;
76417;SDS011;65250;47.602;19.002;2023-08-06T05:04:00;0.20;;;0.20;;
76417;SDS011;65250;47.602;19.002;2023-08-06T05:06:27;0.28;;;0.28;;
76417;SDS011;65250;47.602;19.002;2023-08-06T05:08:54;0.20;;;0.17;;
76417;SDS011;65250;47.602;19.002;2023-08-06T05:11:20;0.20;;;0.20;;
76417;SDS011;65250;47.602;19.002;2023-08-06T05:13:47;0.20;;;0.10;;
76417;SDS011;65250;47.602;19.002;2023-08-06T05:16:14;0.20;;;0.13;;
76417;SDS011;65250;47.602;19.002;2023-08-06T05:18:41;0.10;;;0.10;;
76417;SDS011;65250;47.602;19.002;2023-08-06T05:21:08;0.28;;;0.28;;
76417;SDS011;65250;47.602;19.002;2023-08-06T05:23:34;0.22;;;0.22;;
76417;SDS011;65250;47.602;19.002;2023-08-06T05:26:01;0.10;;;0.10;;
76417;SDS011;65250;47.602;19.002;2023-08-06T05:28:28;0.20;;;0.20;;
76417;SDS011;65250;47.602;19.002;2023-08-06T05:30:55;0.25;;;0.25;;
76417;SDS011;65250;47.602;19.002;2023-08-06T05:33:22;0.10;;;0.10;;
76417;SDS011;65250;47.602;19.002;2023-08-06T05:35:49;0.10;;;0.08;;
76417;SDS011;65250;47.602;19.002;2023-08-06T05:38:16;0.35;;;0.30;;
76417;SDS011;65250;47.602;19.002;2023-08-06T05:40:44;0.20;;;0.13;;
76417;SDS011;65250;47.602;19.002;2023-08-06T05:43:10;0.20;;;0.20;;
76417;SDS011;65250;47.602;19.002;2023-08-06T05:45:37;0.10;;;0.10;;
76417;SDS011;65250;47.602;19.002;2023-08-06T05:48:04;0.20;;;0.20;;
76417;SDS011;65250;47.602;19.002;2023-08-06T05:50:31;0.35;;;0.20;;
76417;SDS011;65250;47.602;19.002;2023-08-06T05:52:58;0.10;;;0.03;;
76417;SDS011;65250;47.602;19.002;2023-08-06T05:55:27;0.10;;;0.10;;
76417;SDS011;65250;47.602;19.002;2023-08-06T05:57:54;0.10;;;0.10;;
76417;SDS011;65250;47.602;19.002;2023-08-06T06:00:21;0.20;;;0.20;;
76417;SDS011;65250;47.602;19.002;2023-08-06T06:02:48;0.10;;;0.00;;
76417;SDS011;65250;47.602;19.002;2023-08-06T06:05:15;0.37;;;0.37;;
76417;SDS011;65250;47.602;19.002;2023-08-06T06:07:42;0.20;;;0.20;;
76417;SDS011;65250;47.602;19.002;2023-08-06T06:10:09;0.85;;;0.30;;
76417;SDS011;65250;47.602;19.002;2023-08-06T06:12:37;0.20;;;0.20;;
76417;SDS011;65250;47.602;19.002;2023-08-06T06:15:05;0.25;;;0.20;;
76417;SDS011;65250;47.602;19.002;2023-08-06T06:17:32;0.20;;;0.20;;
76417;SDS011;65250;47.602;19.002;2023-08-06T06:19:59;0.20;;;0.20;;
76417;SDS011;65250;47.602;19.002;2023-08-06T06:22:25;0.20;;;0.20;;
76417;SDS011;65250;47.602;19.002;2023-08-06T06:24:52;0.20;;;0.20;;
76417;SDS011;65250;47.602;19.002;2023-08-06T06:27:19;0.30;;;0.30;;
76417;SDS011;65250;47.602;19.002;2023-08-06T06:29:45;0.13;;;0.13;;
76417;SDS011;65250;47.602;19.002;2023-08-06T06:32:12;0.20;;;0.20;;
76417;SDS011;65250;47.602;19.002;2023-08-06T06:34:39;0.20;;;0.20;;
76417;SDS011;65250;47.602;19.002;2023-08-06T06:37:06;0.10;;;0.10;;
76417;SDS011;65250;47.602;19.002;2023-08-06T06:39:32;0.20;;;0.20;;
76417;SDS011;65250;47.602;19.002;2023-08-06T06:41:59;0.30;;;0.30;;
76417;SDS011;65250;47.602;19.002;2023-08-06T06:44:26;0.20;;;0.20;;
76417;SDS011;65250;47.602;19.002;2023-08-06T06:46:53;0.28;;;0.28;;
76417;SDS011;65250;47.602;19.002;2023-08-06T06:49:19;0.30;;;0.30;;
76417;SDS011;65250;47.602;19.002;2023-08-06T06:51:46;0.20;;;0.20;;
76417;SDS011;65250;47.602;19.002;2023-08-06T06:54:13;0.30;;;0.30;;
76417;SDS011;65250;47.602;19.002;2023-08-06T06:56:41;0.20;;;0.20;;
76417;SDS011;65250;47.602;19.002;2023-08-06T06:59:08;0.20;;;0.20;;
76417;SDS011;65250;47.602;19.002;2023-08-06T07:01:34;0.20;;;0.20;;
76417;SDS011;65250;47.602;19.002;2023-08-06T07:04:01;0.32;;;0.20;;
76417;SDS011;65250;47.602;19.002;2023-08-06T07:06:31;0.30;;;0.30;;
76417;SDS011;65250;47.602;19.002;2023-08-06T07:08:58;0.20;;;0.20;;
76417;SDS011;65250;47.602;19.002;2023-08-06T07:11:25;0.22;;;0.20;;
76417;SDS011;65250;47.602;19.002;2023-08-06T07:14:00;0.20;;;0.20;;
76417;SDS011;65250;47.602;19.002;2023-08-06T07:16:27;0.20;;;0.20;;
76417;SDS011;65250;47.602;19.002;2023-08-06T07:18:55;0.20;;;0.20;;
76417;SDS011;65250;47.602;19.002;2023-08-06T07:21:22;0.10;;;0.10;;
76417;SDS011;65250;47.602;19.002;2023-08-06T07:23:49;0.22;;;0.17;;
76417;SDS011;65250;47.602;19.002;2023-08-06T07:26:16;0.10;;;0.10;;
76417;SDS011;65250;47.602;19.002;2023-08-06T07:28:43;0.10;;;0.10;;
76417;SDS011;65250;47.602;19.002;2023-08-06T07:31:11;0.40;;;0.20;;
76417;SDS011;65250;47.602;19.002;2023-08-06T07:33:38;0.10;;;0.10;;
76417;SDS011;65250;47.602;19.002;2023-08-06T07:36:12;0.20;;;0.20;;
76417;SDS011;65250;47.602;19.002;2023-08-06T07:38:40;0.20;;;0.20;;
76417;SDS011;65250;47.602;19.002;2023-08-06T07:41:08;0.10;;;0.10;;
76417;SDS011;65250;47.602;19.002;2023-08-06T07:43:35;0.10;;;0.10;;
76417;SDS011;65250;47.602;19.002;2023-08-06T07:46:02;0.10;;;0.10;;
76417;SDS011;65250;47.602;19.002;2023-08-06T07:48:29;0.10;;;0.00;;
76417;SDS011;65250;47.602;19.002;2023-08-06T07:50:56;0.20;;;0.20;;
76417;SDS011;65250;47.602;19.002;2023-08-06T07:53:24;0.10;;;0.10;;
76417;SDS011;65250;47.602;19.002;2023-08-06T07:55:53;0.23;;;0.23;;
76417;SDS011;65250;47.602;19.002;2023-08-06T07:58:20;0.10;;;0.10;;
76417;SDS011;65250;47.602;19.002;2023-08-06T08:00:47;0.10;;;0.00;;
76417;SDS011;65250;47.602;19.002;2023-08-06T08:03:15;0.10;;;0.10;;
76417;SDS011;65250;47.602;19.002;2023-08-06T08:05:43;0.20;;;0.20;;
76417;SDS011;65250;47.602;19.002;2023-08-06T08:08:10;0.10;;;0.10;;
76417;SDS011;65250;47.602;19.002;2023-08-06T08:10:37;0.10;;;0.10;;
76417;SDS011;65250;47.602;19.002;2023-08-06T08:13:05;0.10;;;0.10;;
76417;SDS011;65250;47.602;19.002;2023-08-06T08:15:32;0.10;;;0.00;;
76417;SDS011;65250;47.602;19.002;2023-08-06T08:17:59;0.20;;;0.20;;
76417;SDS011;65250;47.602;19.002;2023-08-06T08:20:26;0.20;;;0.20;;
76417;SDS011;65250;47.602;19.002;2023-08-06T08:23:02;0.22;;;0.22;;
76417;SDS011;65250;47.602;19.002;2023-08-06T08:25:29;0.10;;;0.10;;
76417;SDS011;65250;47.602;19.002;2023-08-06T08:27:57;0.10;;;0.10;;
76417;SDS011;65250;47.602;19.002;2023-08-06T08:30:24;0.20;;;0.10;;
76417;SDS011;65250;47.602;19.002;2023-08-06T08:32:52;0.10;;;0.10;;
76417;SDS011;65250;47.602;19.002;2023-08-06T08:35:19;0.10;;;0.10;;
76417;SDS011;65250;47.602;19.002;2023-08-06T08:37:46;0.10;;;0.10;;
76417;SDS011;65250;47.602;19.002;2023-08-06T08:40:13;0.10;;;0.10;;
76417;SDS011;65250;47.602;19.002;2023-08-06T08:42:41;0.20;;;0.20;;
76417;SDS011;65250;47.602;19.002;2023-08-06T08:45:12;0.20;;;0.20;;
76417;SDS011;65250;47.602;19.002;2023-08-06T08:47:40;0.10;;;0.10;;
76417;SDS011;65250;47.602;19.002;2023-08-06T08:50:08;0.10;;;0.10;;
76417;SDS011;65250;47.602;19.002;2023-08-06T08:52:40;0.10;;;0.10;;
76417;SDS011;65250;47.602;19.002;2023-08-06T08:55:08;0.30;;;0.20;;
76417;SDS011;65250;47.602;19.002;2023-08-06T08:57:35;0.10;;;0.10;;
76417;SDS011;65250;47.602;19.002;2023-08-06T09:00:02;0.30;;;0.30;;
76417;SDS011;65250;47.602;19.002;2023-08-06T09:02:30;0.10;;;0.10;;
76417;SDS011;65250;47.602;19.002;2023-08-06T09:04:59;0.17;;;0.17;;
76417;SDS011;65250;47.602;19.002;2023-08-06T09:07:32;0.20;;;0.20;;
76417;SDS011;65250;47.602;19.002;2023-08-06T09:10:02;0.20;;;0.20;;
76417;SDS011;65250;47.602;19.002;2023-08-06T09:12:32;0.20;;;0.20;;
76417;SDS011;65250;47.602;19.002;2023-08-06T09:14:59;0.30;;;0.30;;
76417;SDS011;65250;47.602;19.002;2023-08-06T09:17:26;0.25;;;0.25;;
76417;SDS011;65250;47.602;19.002;2023-08-06T09:19:54;0.22;;;0.22;;
76417;SDS011;65250;47.602;19.002;2023-08-06T09:22:21;0.25;;;0.25;;
76417;SDS011;65250;47.602;19.002;2023-08-06T09:24:48;0.20;;;0.20;;
76417;SDS011;65250;47.602;19.002;2023-08-06T09:27:15;0.30;;;0.30;;
76417;SDS011;65250;47.602;19.002;2023-08-06T09:29:44;1.05;;;0.30;;
76417;SDS011;65250;47.602;19.002;2023-08-06T09:32:12;0.28;;;0.28;;
76417;SDS011;65250;47.602;19.002;2023-08-06T09:34:39;0.30;;;0.30;;
76417;SDS011;65250;47.602;19.002;2023-08-06T09:37:10;0.20;;;0.20;;
76417;SDS011;65250;47.602;19.002;2023-08-06T09:39:38;0.13;;;0.13;;
76417;SDS011;65250;47.602;19.002;2023-08-06T09:42:06;0.30;;;0.30;;
76417;SDS011;65250;47.602;19.002;2023-08-06T09:44:33;0.20;;;0.20;;
76417;SDS011;65250;47.602;19.002;2023-08-06T09:47:01;0.30;;;0.30;;
76417;SDS011;65250;47.602;19.002;2023-08-06T09:49:40;0.30;;;0.30;;
76417;SDS011;65250;47.602;19.002;2023-08-06T09:52:12;0.90;;;0.40;;
76417;SDS011;65250;47.602;19.002;2023-08-06T09:54:40;0.22;;;0.22;;
76417;SDS011;65250;47.602;19.002;2023-08-06T09:57:06;0.30;;;0.30;;
76417;SDS011;65250;47.602;19.002;2023-08-06T09:59:34;0.37;;;0.37;;
76417;SDS011;65250;47.602;19.002;2023-08-06T10:02:01;0.20;;;0.20;;
76417;SDS011;65250;47.602;19.002;2023-08-06T10:04:29;0.20;;;0.20;;
76417;SDS011;65250;47.602;19.002;2023-08-06T10:07:06;0.40;;;0.40;;
76417;SDS011;65250;47.602;19.002;2023-08-06T10:09:33;0.20;;;0.20;;
76417;SDS011;65250;47.602;19.002;2023-08-06T10:12:00;0.53;;;0.30;;
76417;SDS011;65250;47.602;19.002;2023-08-06T10:14:32;0.10;;;0.10;;
76417;SDS011;65250;47.602;19.002;2023-08-06T10:17:00;0.20;;;0.20;;
76417;SDS011;65250;47.602;19.002;2023-08-06T10:19:27;0.40;;;0.40;;
76417;SDS011;65250;47.602;19.002;2023-08-06T10:22:13;0.20;;;0.20;;
76417;SDS011;65250;47.602;19.002;2023-08-06T10:27:30;0.50;;;0.50;;
76417;SDS011;65250;47.602;19.002;2023-08-06T10:30:20;0.30;;;0.30;;
76417;SDS011;65250;47.602;19.002;2023-08-06T10:32:48;0.22;;;0.22;;
76417;SDS011;65250;47.602;19.002;2023-08-06T10:35:37;0.68;;;0.30;;
76417;SDS011;65250;47.602;19.002;2023-08-06T10:38:22;0.27;;;0.27;;
76417;SDS011;65250;47.602;19.002;2023-08-06T10:45:56;0.20;;;0.20;;
76417;SDS011;65250;47.602;19.002;2023-08-06T10:51:07;0.40;;;0.40;;
76417;SDS011;65250;47.602;19.002;2023-08-06T10:53:35;0.40;;;0.40;;
76417;SDS011;65250;47.602;19.002;2023-08-06T10:56:02;0.32;;;0.32;;
76417;SDS011;65250;47.602;19.002;2023-08-06T10:58:32;0.50;;;0.50;;
76417;SDS011;65250;47.602;19.002;2023-08-06T11:01:00;0.40;;;0.40;;
76417;SDS011;65250;47.602;19.002;2023-08-06T11:03:27;0.50;;;0.50;;
76417;SDS011;65250;47.602;19.002;2023-08-06T11:05:54;0.35;;;0.35;;
76417;SDS011;65250;47.602;19.002;2023-08-06T11:08:25;0.35;;;0.35;;
76417;SDS011;65250;47.602;19.002;2023-08-06T11:10:52;0.40;;;0.30;;
76417;SDS011;65250;47.602;19.002;2023-08-06T11:13:29;0.55;;;0.55;;
76417;SDS011;65250;47.602;19.002;2023-08-06T11:15:56;0.40;;;0.40;;
76417;SDS011;65250;47.602;19.002;2023-08-06T11:18:24;0.50;;;0.50;;
76417;SDS011;65250;47.602;19.002;2023-08-06T11:20:51;0.40;;;0.40;;
76417;SDS011;65250;47.602;19.002;2023-08-06T11:23:18;0.50;;;0.50;;
76417;SDS011;65250;47.602;19.002;2023-08-06T11:25:45;0.50;;;0.50;;
76417;SDS011;65250;47.602;19.002;2023-08-06T11:28:12;0.60;;;0.47;;
76417;SDS011;65250;47.602;19.002;2023-08-06T11:30:39;0.40;;;0.40;;
76417;SDS011;65250;47.602;19.002;2023-08-06T11:33:07;1.58;;;0.30;;
76417;SDS011;65250;47.602;19.002;2023-08-06T11:35:36;0.38;;;0.38;;
76417;SDS011;65250;47.602;19.002;2023-08-06T11:38:04;0.40;;;0.40;;
76417;SDS011;65250;47.602;19.002;2023-08-06T11:40:31;0.40;;;0.40;;
76417;SDS011;65250;47.602;19.002;2023-08-06T11:42:59;0.22;;;0.20;;
76417;SDS011;65250;47.602;19.002;2023-08-06T11:45:25;0.30;;;0.30;;
76417;SDS011;65250;47.602;19.002;2023-08-06T11:47:52;1.48;;;0.50;;
76417;SDS011;65250;47.602;19.002;2023-08-06T11:50:23;0.50;;;0.50;;
76417;SDS011;65250;47.602;19.002;2023-08-06T11:52:57;0.40;;;0.40;;
76417;SDS011;65250;47.602;19.002;2023-08-06T11:55:25;0.65;;;0.65;;
76417;SDS011;65250;47.602;19.002;2023-08-06T11:57:52;0.57;;;0.57;;
76417;SDS011;65250;47.602;19.002;2023-08-06T12:00:19;0.63;;;0.60;;
76417;SDS011;65250;47.602;19.002;2023-08-06T12:02:48;0.60;;;0.60;;
76417;SDS011;65250;47.602;19.002;2023-08-06T12:05:17;0.60;;;0.60;;
76417;SDS011;65250;47.602;19.002;2023-08-06T12:07:47;0.60;;;0.60;;
76417;SDS011;65250;47.602;19.002;2023-08-06T12:10:15;0.60;;;0.60;;
76417;SDS011;65250;47.602;19.002;2023-08-06T12:12:42;0.50;;;0.50;;
76417;SDS011;65250;47.602;19.002;2023-08-06T12:15:09;0.93;;;0.70;;
76417;SDS011;65250;47.602;19.002;2023-08-06T12:17:36;0.80;;;0.80;;
76417;SDS011;65250;47.602;19.002;2023-08-06T12:20:04;0.75;;;0.60;;
76417;SDS011;65250;47.602;19.002;2023-08-06T12:22:32;0.52;;;0.38;;
76417;SDS011;65250;47.602;19.002;2023-08-06T12:25:02;1.77;;;0.75;;
76417;SDS011;65250;47.602;19.002;2023-08-06T12:27:30;0.60;;;0.60;;
76417;SDS011;65250;47.602;19.002;2023-08-06T12:29:57;1.53;;;0.70;;
76417;SDS011;65250;47.602;19.002;2023-08-06T12:32:23;0.50;;;0.50;;
76417;SDS011;65250;47.602;19.002;2023-08-06T12:34:50;0.60;;;0.60;;
76417;SDS011;65250;47.602;19.002;2023-08-06T12:37:19;0.52;;;0.40;;
76417;SDS011;65250;47.602;19.002;2023-08-06T12:39:46;0.70;;;0.70;;
76417;SDS011;65250;47.602;19.002;2023-08-06T12:42:13;0.40;;;0.40;;
76417;SDS011;65250;47.602;19.002;2023-08-06T12:44:39;0.63;;;0.63;;
76417;SDS011;65250;47.602;19.002;2023-08-06T12:47:06;0.60;;;0.60;;
76417;SDS011;65250;47.602;19.002;2023-08-06T12:49:34;0.68;;;0.68;;
76417;SDS011;65250;47.602;19.002;2023-08-06T12:52:01;0.80;;;0.80;;
76417;SDS011;65250;47.602;19.002;2023-08-06T12:54:28;0.50;;;0.50;;
76417;SDS011;65250;47.602;19.002;2023-08-06T12:56:55;0.88;;;0.73;;
76417;SDS011;65250;47.602;19.002;2023-08-06T12:59:22;0.30;;;0.30;;
76417;SDS011;65250;47.602;19.002;2023-08-06T13:01:48;0.60;;;0.60;;
76417;SDS011;65250;47.602;19.002;2023-08-06T13:04:16;0.60;;;0.60;;
76417;SDS011;65250;47.602;19.002;2023-08-06T13:06:48;0.93;;;0.67;;
76417;SDS011;65250;47.602;19.002;2023-08-06T13:09:15;0.93;;;0.63;;
76417;SDS011;65250;47.602;19.002;2023-08-06T13:11:42;0.55;;;0.55;;
76417;SDS011;65250;47.602;19.002;2023-08-06T13:14:13;0.63;;;0.63;;
76417;SDS011;65250;47.602;19.002;2023-08-06T13:16:41;0.70;;;0.52;;
76417;SDS011;65250;47.602;19.002;2023-08-06T13:19:09;0.80;;;0.80;;
76417;SDS011;65250;47.602;19.002;2023-08-06T13:24:07;0.73;;;0.73;;
76417;SDS011;65250;47.602;19.002;2023-08-06T13:26:34;0.90;;;0.90;;
76417;SDS011;65250;47.602;19.002;2023-08-06T13:29:01;1.00;;;0.93;;
76417;SDS011;65250;47.602;19.002;2023-08-06T13:31:29;1.20;;;1.10;;
76417;SDS011;65250;47.602;19.002;2023-08-06T13:33:56;0.90;;;0.90;;
76417;SDS011;65250;47.602;19.002;2023-08-06T13:36:25;0.63;;;0.57;;
76417;SDS011;65250;47.602;19.002;2023-08-06T13:38:53;0.98;;;0.70;;
76417;SDS011;65250;47.602;19.002;2023-08-06T13:41:20;0.90;;;0.90;;
76417;SDS011;65250;47.602;19.002;2023-08-06T13:43:46;0.80;;;0.73;;
76417;SDS011;65250;47.602;19.002;2023-08-06T13:46:13;0.70;;;0.70;;
76417;SDS011;65250;47.602;19.002;2023-08-06T13:48:45;0.85;;;0.85;;
76417;SDS011;65250;47.602;19.002;2023-08-06T13:51:13;0.95;;;0.85;;
76417;SDS011;65250;47.602;19.002;2023-08-06T13:53:40;1.17;;;1.08;;
76417;SDS011;65250;47.602;19.002;2023-08-06T13:56:08;1.10;;;1.00;;
76417;SDS011;65250;47.602;19.002;2023-08-06T13:58:38;0.75;;;0.75;;
76417;SDS011;65250;47.602;19.002;2023-08-06T14:01:05;0.90;;;0.90;;
76417;SDS011;65250;47.602;19.002;2023-08-06T14:03:33;1.08;;;1.02;;
76417;SDS011;65250;47.602;19.002;2023-08-06T14:06:00;1.13;;;1.13;;
76417;SDS011;65250;47.602;19.002;2023-08-06T14:08:27;1.40;;;1.20;;
76417;SDS011;65250;47.602;19.002;2023-08-06T14:10:54;0.98;;;0.95;;
76417;SDS011;65250;47.602;19.002;2023-08-06T14:13:21;1.05;;;0.85;;
76417;SDS011;65250;47.602;19.002;2023-08-06T14:15:48;2.15;;;1.05;;
76417;SDS011;65250;47.602;19.002;2023-08-06T14:18:16;0.93;;;0.88;;
76417;SDS011;65250;47.602;19.002;2023-08-06T14:20:43;1.10;;;0.90;;
76417;SDS011;65250;47.602;19.002;2023-08-06T14:23:11;0.77;;;0.73;;
76417;SDS011;65250;47.602;19.002;2023-08-06T14:25:38;1.27;;;0.80;;
76417;SDS011;65250;47.602;19.002;2023-08-06T14:28:05;0.70;;;0.70;;
76417;SDS011;65250;47.602;19.002;2023-08-06T14:30:33;0.80;;;0.80;;
76417;SDS011;65250;47.602;19.002;2023-08-06T14:33:01;0.90;;;0.90;;
76417;SDS011;65250;47.602;19.002;2023-08-06T14:35:48;1.20;;;0.80;;
76417;SDS011;65250;47.602;19.002;2023-08-06T14:38:14;0.73;;;0.68;;
76417;SDS011;65250;47.602;19.002;2023-08-06T14:40:42;1.00;;;0.90;;
76417;SDS011;65250;47.602;19.002;2023-08-06T14:43:10;0.88;;;0.82;;
76417;SDS011;65250;47.602;19.002;2023-08-06T14:45:40;1.07;;;1.07;;
76417;SDS011;65250;47.602;19.002;2023-08-06T14:48:07;0.90;;;0.90;;
76417;SDS011;65250;47.602;19.002;2023-08-06T14:50:34;0.85;;;0.82;;
76417;SDS011;65250;47.602;19.002;2023-08-06T14:53:01;1.05;;;1.00;;
76417;SDS011;65250;47.602;19.002;2023-08-06T14:55:31;0.90;;;0.90;;
76417;SDS011;65250;47.602;19.002;2023-08-06T14:57:58;0.80;;;0.80;;